Time;durP1;ratioP1;P1;durP2;ratioP2;P2;SDS_P1;SDS_P2;PMS_P1;PMS_P2;Temp;Humidity;BMP_temperature;BMP_pressure;BME280_temperature;BME280_humidity;BME280_pressure;Samples;Min_cycle;Max_cycle;Signal;HPM_P1;HPM_P2
2021/08/10 00:00:00;;;;;;;6.50;4.40;;;23.80;68.90;;;;;;5033933;28;20021;-61
2021/08/10 00:02:26;;;;;;;4.90;4.40;;;23.70;68.90;;;;;;5035551;28;20117;-61
2021/08/10 00:04:52;;;;;;;6.97;5.20;;;23.70;69.20;;;;;;5034474;28;20468;-61
2021/08/10 00:07:18;;;;;;;5.35;4.78;;;23.70;69.40;;;;;;5043701;28;20020;-61
2021/08/10 00:09:43;;;;;;;5.60;4.70;;;23.70;69.50;;;;;;5050992;28;20247;-61
2021/08/10 00:12:10;;;;;;;7.05;5.30;;;23.70;69.70;;;;;;5053924;28;20487;-61
2021/08/10 00:14:36;;;;;;;5.47;4.95;;;23.70;69.80;;;;;;5025130;28;20025;-61
2021/08/10 00:17:03;;;;;;;7.88;4.93;;;23.60;69.80;;;;;;5032883;28;20113;-61
2021/08/10 00:19:28;;;;;;;7.00;5.65;;;23.60;70.00;;;;;;5029342;28;20553;-61
2021/08/10 00:21:54;;;;;;;7.80;5.53;;;23.60;70.20;;;;;;5034414;28;20112;-61
2021/08/10 00:24:20;;;;;;;6.25;5.32;;;23.60;70.50;;;;;;5034172;28;20465;-61
2021/08/10 00:26:46;;;;;;;6.25;5.00;;;23.50;70.60;;;;;;5033589;28;20552;-61
2021/08/10 00:29:12;;;;;;;6.85;5.18;;;23.50;70.70;;;;;;5033604;28;20370;-61
2021/08/10 00:31:38;;;;;;;6.10;5.18;;;23.50;70.90;;;;;;5033684;28;20091;-61
2021/08/10 00:34:04;;;;;;;8.68;5.30;;;23.50;71.00;;;;;;5033711;28;20087;-61
2021/08/10 00:36:30;;;;;;;6.35;5.18;;;23.40;71.00;;;;;;5026687;28;20040;-61
2021/08/10 00:38:56;;;;;;;7.80;5.65;;;23.40;71.20;;;;;;5026078;28;20029;-61
2021/08/10 00:41:21;;;;;;;6.32;5.60;;;23.30;71.20;;;;;;5033219;28;20068;-61
2021/08/10 00:43:48;;;;;;;7.75;5.63;;;23.30;71.40;;;;;;5029961;28;20025;-61
2021/08/10 00:46:14;;;;;;;6.43;5.35;;;23.30;71.50;;;;;;5032278;28;20030;-61
2021/08/10 00:48:40;;;;;;;7.97;5.43;;;23.20;71.50;;;;;;5038478;28;20028;-61
2021/08/10 00:51:08;;;;;;;6.80;5.30;;;23.20;71.50;;;;;;5053163;28;20061;-61
2021/08/10 00:53:35;;;;;;;6.25;5.65;;;23.20;71.50;;;;;;5053480;28;20472;-61
2021/08/10 00:56:06;;;;;;;8.35;5.50;;;23.20;71.40;;;;;;5053115;28;20032;-61
2021/08/10 00:58:32;;;;;;;7.20;5.60;;;23.20;71.90;;;;;;5047675;28;20033;-61
2021/08/10 01:00:58;;;;;;;7.88;5.53;;;23.10;72.20;;;;;;5033112;28;20026;-61
2021/08/10 01:03:24;;;;;;;6.70;6.10;;;23.10;73.00;;;;;;5032362;28;20061;-61
2021/08/10 01:05:51;;;;;;;9.00;6.03;;;23.00;72.80;;;;;;5033434;28;20025;-61
2021/08/10 01:08:16;;;;;;;7.28;6.40;;;23.00;73.00;;;;;;5033519;28;20032;-61
2021/08/10 01:11:01;;;;;;;7.78;6.00;;;23.00;73.30;;;;;;5032800;28;20021;-62
2021/08/10 01:13:43;;;;;;;7.47;5.68;;;22.90;73.70;;;;;;5030685;28;20481;-61
2021/08/10 01:16:24;;;;;;;6.55;5.57;;;23.00;74.50;;;;;;5031630;28;20029;-61
2021/08/10 01:19:04;;;;;;;7.85;5.97;;;22.90;74.80;;;;;;5033150;28;20492;-61
2021/08/10 01:21:37;;;;;;;10.50;6.63;;;22.90;75.20;;;;;;5026757;28;20112;-60
2021/08/10 01:24:15;;;;;;;7.40;6.68;;;22.90;75.30;;;;;;5033119;28;20385;-60
2021/08/10 01:27:09;;;;;;;7.80;6.35;;;22.90;75.80;;;;;;5032849;28;20021;-61
2021/08/10 01:30:03;;;;;;;7.03;6.30;;;22.90;76.00;;;;;;5032764;28;20495;-61
2021/08/10 01:32:30;;;;;;;7.05;6.32;;;22.80;76.10;;;;;;5024284;28;20524;-61
2021/08/10 01:34:56;;;;;;;6.18;5.57;;;22.80;76.10;;;;;;5032890;28;20382;-61
2021/08/10 01:37:33;;;;;;;8.00;6.88;;;22.80;76.10;;;;;;5034301;28;20036;-61
2021/08/10 01:40:02;;;;;;;8.02;6.18;;;22.80;76.40;;;;;;5051190;28;20124;-61
2021/08/10 01:42:29;;;;;;;8.13;6.38;;;22.80;76.70;;;;;;5048619;28;20033;-61
2021/08/10 01:44:57;;;;;;;8.73;6.82;;;22.80;77.00;;;;;;5032143;28;20048;-61
2021/08/10 01:47:23;;;;;;;7.03;6.25;;;22.80;77.10;;;;;;5032198;28;20029;-60
2021/08/10 01:49:50;;;;;;;7.13;5.78;;;22.80;77.30;;;;;;5034340;28;20021;-61
2021/08/10 01:52:20;;;;;;;6.93;6.20;;;22.80;77.60;;;;;;5052495;28;20027;-61
2021/08/10 01:54:47;;;;;;;7.22;6.50;;;22.80;77.40;;;;;;5055686;28;20111;-60
2021/08/10 01:57:14;;;;;;;6.88;6.18;;;22.80;77.50;;;;;;5056845;28;20025;-60
2021/08/10 01:59:43;;;;;;;7.20;6.20;;;22.70;77.40;;;;;;5040679;28;20042;-61
2021/08/10 02:02:09;;;;;;;6.97;6.28;;;22.70;77.50;;;;;;5036550;28;20025;-61
2021/08/10 02:04:35;;;;;;;7.13;6.43;;;22.70;77.50;;;;;;5036250;28;20088;-61
2021/08/10 02:07:02;;;;;;;6.60;6.00;;;22.70;77.60;;;;;;5018866;28;20025;-60
2021/08/10 02:09:29;;;;;;;9.95;6.30;;;22.70;77.70;;;;;;5036976;28;20021;-61
2021/08/10 02:11:55;;;;;;;6.78;6.07;;;22.60;77.70;;;;;;5036526;28;20100;-61
2021/08/10 02:14:24;;;;;;;6.32;5.57;;;22.70;77.90;;;;;;5023819;28;20072;-61
2021/08/10 02:16:51;;;;;;;7.30;5.93;;;22.70;77.90;;;;;;5025868;28;20052;-61
2021/08/10 02:19:18;;;;;;;7.60;6.15;;;22.70;77.90;;;;;;5035970;28;20029;-62
2021/08/10 02:21:48;;;;;;;6.28;5.68;;;22.60;78.00;;;;;;5036239;28;20037;-61
2021/08/10 02:24:27;;;;;;;6.55;5.88;;;22.60;77.90;;;;;;5036638;28;20037;-61
2021/08/10 02:27:00;;;;;;;7.10;6.40;;;22.60;77.70;;;;;;5042516;28;20025;-61
2021/08/10 02:29:30;;;;;;;7.60;6.43;;;22.60;78.20;;;;;;5037138;28;20121;-61
2021/08/10 02:31:56;;;;;;;6.15;5.55;;;22.60;78.10;;;;;;5034996;28;20039;-61
2021/08/10 02:34:23;;;;;;;7.50;6.13;;;22.60;78.10;;;;;;5035597;28;20041;-61
2021/08/10 02:36:59;;;;;;;7.88;6.72;;;22.60;78.20;;;;;;5035462;28;20026;-61
2021/08/10 02:39:26;;;;;;;8.32;6.13;;;22.60;78.20;;;;;;5037227;28;20503;-60
2021/08/10 02:41:54;;;;;;;7.82;6.63;;;22.60;78.20;;;;;;5051638;28;20359;-61
2021/08/10 02:44:21;;;;;;;6.00;5.45;;;22.60;78.30;;;;;;5022729;28;20385;-61
2021/08/10 02:46:47;;;;;;;7.60;6.80;;;22.60;78.20;;;;;;5028930;28;20028;-62
2021/08/10 02:49:13;;;;;;;7.35;6.63;;;22.60;78.30;;;;;;5039690;28;20464;-61
2021/08/10 02:51:39;;;;;;;7.68;6.28;;;22.50;78.40;;;;;;5035586;28;20492;-61
2021/08/10 02:54:05;;;;;;;7.10;6.35;;;22.50;78.60;;;;;;5035465;28;20045;-61
2021/08/10 02:56:42;;;;;;;6.72;6.03;;;22.50;78.80;;;;;;5039407;28;20039;-61
2021/08/10 02:59:15;;;;;;;8.48;6.45;;;22.50;78.80;;;;;;5025926;28;20036;-60
2021/08/10 03:01:47;;;;;;;7.15;6.45;;;22.50;78.80;;;;;;5042195;28;20025;-61
2021/08/10 03:04:14;;;;;;;8.48;6.78;;;22.50;79.00;;;;;;5055190;28;20036;-61
2021/08/10 03:06:40;;;;;;;9.73;6.57;;;22.50;79.50;;;;;;5053532;28;20020;-61
2021/08/10 03:09:09;;;;;;;8.13;6.85;;;22.50;79.20;;;;;;5050251;28;20025;-61
2021/08/10 03:11:39;;;;;;;7.53;6.38;;;22.50;79.30;;;;;;5040706;28;20029;-61
2021/08/10 03:14:08;;;;;;;8.40;7.55;;;22.50;79.70;;;;;;5029953;28;20026;-61
2021/08/10 03:16:35;;;;;;;10.82;7.05;;;22.50;79.90;;;;;;5038187;28;20041;-61
2021/08/10 03:19:04;;;;;;;10.80;7.40;;;22.50;80.00;;;;;;5037178;28;20033;-61
2021/08/10 03:21:32;;;;;;;8.07;7.28;;;22.50;80.20;;;;;;5035455;28;20080;-61
2021/08/10 03:23:59;;;;;;;7.93;7.13;;;22.50;80.40;;;;;;5022723;28;20546;-61
2021/08/10 03:26:25;;;;;;;7.47;6.78;;;22.60;80.60;;;;;;5034039;28;20079;-61
2021/08/10 03:28:53;;;;;;;8.15;7.07;;;22.60;80.50;;;;;;5035863;28;20025;-61
2021/08/10 03:31:19;;;;;;;8.10;7.30;;;22.70;80.60;;;;;;5034797;28;20050;-61
2021/08/10 03:33:46;;;;;;;8.00;6.93;;;22.80;80.70;;;;;;5034876;28;20108;-60
2021/08/10 03:36:12;;;;;;;7.97;7.18;;;22.90;80.60;;;;;;5035309;28;20033;-61
2021/08/10 03:38:39;;;;;;;8.18;7.38;;;22.90;80.70;;;;;;5040568;28;20037;-61
2021/08/10 03:41:06;;;;;;;8.82;7.07;;;23.00;80.40;;;;;;5036255;28;20033;-61
2021/08/10 03:43:35;;;;;;;8.48;7.57;;;23.10;80.20;;;;;;5028802;28;20034;-61
2021/08/10 03:46:01;;;;;;;8.38;7.53;;;23.20;80.20;;;;;;5015353;28;20377;-61
2021/08/10 03:48:33;;;;;;;9.32;7.28;;;23.40;80.10;;;;;;5034655;28;20516;-61
2021/08/10 03:51:00;;;;;;;8.10;7.30;;;23.40;79.70;;;;;;5034807;28;20388;-61
2021/08/10 03:53:27;;;;;;;7.95;7.20;;;23.50;79.60;;;;;;5034783;28;20504;-61
2021/08/10 03:55:54;;;;;;;7.45;6.75;;;23.60;79.40;;;;;;5034898;28;20525;-61
2021/08/10 03:58:23;;;;;;;8.68;7.55;;;23.60;79.10;;;;;;5034168;28;20029;-61
2021/08/10 04:00:52;;;;;;;9.23;7.03;;;23.70;79.00;;;;;;5034024;28;20108;-61
2021/08/10 04:03:18;;;;;;;7.78;7.00;;;23.80;78.80;;;;;;5034514;28;20029;-62
2021/08/10 04:05:47;;;;;;;8.02;7.22;;;23.90;78.80;;;;;;5023057;28;20029;-62
2021/08/10 04:08:15;;;;;;;8.30;7.38;;;24.10;79.00;;;;;;5032650;28;20426;-61
2021/08/10 04:10:46;;;;;;;7.78;6.97;;;24.40;79.10;;;;;;5034327;28;20548;-61
2021/08/10 04:13:12;;;;;;;9.25;7.20;;;24.80;78.30;;;;;;5031173;28;20362;-61
2021/08/10 04:15:47;;;;;;;7.55;6.85;;;25.20;77.10;;;;;;5014518;28;20037;-61
2021/08/10 04:18:19;;;;;;;7.15;6.45;;;25.60;75.50;;;;;;5032390;28;20030;-60
2021/08/10 04:20:49;;;;;;;7.90;6.80;;;25.90;74.80;;;;;;5033166;28;20446;-61
2021/08/10 04:23:15;;;;;;;7.15;6.45;;;26.10;73.90;;;;;;5014419;28;20490;-61
2021/08/10 04:25:41;;;;;;;7.40;6.63;;;26.50;73.20;;;;;;5029259;28;20060;-61
2021/08/10 04:28:07;;;;;;;7.63;6.85;;;26.80;71.90;;;;;;5032101;28;20036;-61
2021/08/10 04:30:32;;;;;;;7.72;6.93;;;26.90;70.80;;;;;;5014025;28;20073;-61
2021/08/10 04:32:58;;;;;;;7.47;6.78;;;26.90;70.50;;;;;;5041626;28;20087;-61
2021/08/10 04:35:25;;;;;;;7.60;6.80;;;26.80;70.50;;;;;;5033798;28;20025;-61
2021/08/10 04:37:51;;;;;;;8.70;6.97;;;26.80;70.40;;;;;;5034438;28;20084;-61
2021/08/10 04:40:17;;;;;;;7.93;7.13;;;26.80;70.60;;;;;;5048892;28;20032;-61
2021/08/10 04:42:43;;;;;;;7.93;7.18;;;26.80;70.30;;;;;;5051578;28;20485;-61
2021/08/10 04:45:09;;;;;;;9.48;8.60;;;26.80;70.60;;;;;;5033909;28;20079;-61
2021/08/10 04:47:35;;;;;;;9.30;8.38;;;26.80;70.20;;;;;;5044610;28;20107;-61
2021/08/10 04:50:00;;;;;;;8.30;7.47;;;26.90;70.80;;;;;;5047720;28;20480;-61
2021/08/10 04:52:26;;;;;;;7.65;6.95;;;27.30;70.70;;;;;;5033804;28;20369;-62
2021/08/10 04:54:52;;;;;;;7.95;6.82;;;27.90;69.90;;;;;;5033433;28;20037;-62
2021/08/10 04:57:17;;;;;;;6.88;6.20;;;28.70;68.50;;;;;;5033518;28;20040;-62
2021/08/10 04:59:43;;;;;;;7.35;6.65;;;29.50;67.00;;;;;;5032856;28;20029;-61
2021/08/10 05:02:08;;;;;;;7.47;6.68;;;30.10;65.30;;;;;;5033111;28;20059;-61
2021/08/10 05:04:34;;;;;;;7.43;6.63;;;30.50;63.60;;;;;;5033204;28;20042;-61
2021/08/10 05:07:03;;;;;;;7.43;6.55;;;30.80;62.70;;;;;;5040286;28;20025;-61
2021/08/10 05:09:31;;;;;;;6.90;6.20;;;31.00;61.70;;;;;;5046744;28;20021;-61
2021/08/10 05:11:57;;;;;;;7.25;6.55;;;31.20;61.40;;;;;;5052611;28;20027;-61
2021/08/10 05:14:23;;;;;;;6.90;6.20;;;31.50;60.70;;;;;;5035272;28;20037;-61
2021/08/10 05:16:49;;;;;;;7.03;6.32;;;31.60;59.90;;;;;;5024286;28;20029;-61
2021/08/10 05:19:15;;;;;;;7.50;6.80;;;31.50;59.60;;;;;;5032655;28;20503;-61
2021/08/10 05:21:40;;;;;;;7.00;6.38;;;31.30;59.50;;;;;;5039395;28;20113;-60
2021/08/10 05:24:06;;;;;;;5.53;4.97;;;30.80;59.80;;;;;;5028872;28;20488;-64
2021/08/10 05:26:32;;;;;;;6.95;5.68;;;30.40;60.00;;;;;;5023990;28;20026;-62
2021/08/10 05:28:58;;;;;;;7.10;6.40;;;30.00;60.50;;;;;;5030501;28;20034;-62
2021/08/10 05:31:23;;;;;;;8.38;6.78;;;29.70;61.00;;;;;;5028840;28;20049;-61
2021/08/10 05:33:50;;;;;;;7.07;6.47;;;29.50;61.30;;;;;;5039902;28;20829;-61
2021/08/10 05:36:16;;;;;;;7.38;6.65;;;29.40;61.40;;;;;;5033316;28;20034;-60
2021/08/10 05:38:43;;;;;;;7.57;6.85;;;29.40;61.50;;;;;;5036724;28;20500;-59
2021/08/10 05:41:10;;;;;;;7.22;6.53;;;29.20;61.70;;;;;;5030476;28;20067;-59
2021/08/10 05:43:36;;;;;;;9.10;7.80;;;29.10;62.70;;;;;;5028183;28;20034;-58
2021/08/10 05:46:02;;;;;;;7.47;6.78;;;28.80;62.20;;;;;;5028244;28;20067;-59
2021/08/10 05:48:27;;;;;;;7.88;7.00;;;28.60;62.70;;;;;;5026178;28;20059;-57
2021/08/10 05:50:53;;;;;;;9.40;7.30;;;28.40;63.30;;;;;;5027462;28;20095;-59
2021/08/10 05:53:19;;;;;;;7.47;6.78;;;28.20;63.80;;;;;;5030729;28;20057;-58
2021/08/10 05:55:44;;;;;;;7.30;6.60;;;28.00;64.10;;;;;;5033739;28;20033;-59
2021/08/10 05:58:10;;;;;;;8.07;7.25;;;27.80;64.50;;;;;;5026013;28;20030;-59
2021/08/10 06:00:37;;;;;;;7.70;7.00;;;27.60;64.80;;;;;;5021696;28;20037;-59
2021/08/10 06:03:03;;;;;;;7.90;7.13;;;27.50;65.10;;;;;;5021003;28;20141;-58
2021/08/10 06:05:29;;;;;;;7.50;6.80;;;27.40;65.50;;;;;;5027623;28;20599;-59
2021/08/10 06:07:54;;;;;;;8.25;7.50;;;27.20;65.60;;;;;;5025285;28;20029;-59
2021/08/10 06:10:20;;;;;;;8.40;7.57;;;27.20;65.90;;;;;;5023981;28;20520;-58
2021/08/10 06:12:46;;;;;;;8.15;7.35;;;27.10;66.50;;;;;;5022637;28;20033;-58
2021/08/10 06:15:11;;;;;;;8.40;7.45;;;27.00;66.20;;;;;;5022417;28;20112;-58
2021/08/10 06:17:37;;;;;;;8.27;7.32;;;26.90;66.30;;;;;;5028219;28;20034;-58
2021/08/10 06:20:04;;;;;;;7.32;6.63;;;26.90;66.50;;;;;;5031474;28;20026;-58
2021/08/10 06:22:30;;;;;;;8.20;7.50;;;26.80;66.60;;;;;;5033685;28;20030;-58
2021/08/10 06:24:55;;;;;;;7.75;6.90;;;26.80;66.80;;;;;;5030522;28;20055;-58
2021/08/10 06:27:22;;;;;;;8.02;7.20;;;26.70;67.00;;;;;;5028658;28;20042;-58
2021/08/10 06:29:48;;;;;;;7.57;6.88;;;26.60;67.10;;;;;;5031282;28;20021;-58
2021/08/10 06:32:14;;;;;;;8.15;6.93;;;26.60;67.30;;;;;;5027629;28;20083;-58
2021/08/10 06:34:40;;;;;;;8.15;7.35;;;26.60;67.40;;;;;;5029741;28;20073;-60
2021/08/10 06:37:05;;;;;;;9.52;7.10;;;26.50;68.00;;;;;;5032194;28;20043;-60
2021/08/10 06:39:31;;;;;;;7.60;6.43;;;26.50;68.50;;;;;;5023858;28;20492;-60
2021/08/10 06:41:57;;;;;;;7.43;6.72;;;26.50;68.50;;;;;;5021325;28;20029;-60
2021/08/10 06:44:22;;;;;;;10.32;6.32;;;26.60;68.50;;;;;;5018442;28;20037;-60
2021/08/10 06:46:48;;;;;;;7.00;6.30;;;26.60;68.50;;;;;;5029323;28;20041;-60
2021/08/10 06:49:13;;;;;;;7.18;6.45;;;26.70;68.30;;;;;;5027808;28;20033;-60
2021/08/10 06:51:40;;;;;;;7.30;6.60;;;26.70;68.40;;;;;;5027674;28;20025;-60
2021/08/10 06:54:06;;;;;;;7.53;6.68;;;26.70;68.40;;;;;;5023493;28;20046;-63
2021/08/10 06:56:32;;;;;;;7.47;6.75;;;26.80;68.50;;;;;;5022598;28;20037;-62
2021/08/10 06:58:57;;;;;;;7.95;6.60;;;26.80;68.30;;;;;;5022696;28;20029;-62
2021/08/10 07:01:23;;;;;;;7.03;6.32;;;26.80;68.30;;;;;;5026417;28;20477;-64
2021/08/10 07:03:49;;;;;;;8.82;6.32;;;26.90;68.50;;;;;;5019885;28;20033;-62
2021/08/10 07:06:14;;;;;;;7.43;6.72;;;26.90;68.30;;;;;;5026740;28;20037;-61
2021/08/10 07:08:40;;;;;;;6.75;6.05;;;26.90;68.40;;;;;;5024667;28;20030;-61
2021/08/10 07:11:06;;;;;;;7.20;6.50;;;27.00;68.50;;;;;;5021540;28;20052;-61
2021/08/10 07:13:31;;;;;;;6.85;6.15;;;27.00;68.30;;;;;;5024303;28;20107;-61
2021/08/10 07:15:57;;;;;;;8.02;6.50;;;27.00;67.90;;;;;;5021368;28;20037;-62
2021/08/10 07:18:23;;;;;;;6.88;6.18;;;27.10;68.20;;;;;;5021670;28;20041;-61
2021/08/10 07:20:48;;;;;;;7.47;6.70;;;27.10;67.90;;;;;;5020328;28;20493;-61
2021/08/10 07:23:14;;;;;;;7.38;6.68;;;27.10;67.80;;;;;;5020524;28;20075;-60
2021/08/10 07:25:39;;;;;;;6.72;6.13;;;27.20;68.10;;;;;;5021995;28;20669;-61
2021/08/10 07:28:05;;;;;;;6.75;6.05;;;27.20;67.40;;;;;;5020603;28;20112;-61
2021/08/10 07:30:31;;;;;;;6.63;5.95;;;27.20;67.50;;;;;;5024731;28;20048;-61
2021/08/10 07:32:57;;;;;;;7.63;6.88;;;27.20;67.50;;;;;;5016519;28;20029;-61
2021/08/10 07:35:23;;;;;;;8.57;6.47;;;27.20;67.30;;;;;;5016502;28;20033;-61
2021/08/10 07:37:49;;;;;;;7.28;6.57;;;27.20;67.20;;;;;;5021908;28;20554;-61
2021/08/10 07:40:15;;;;;;;7.00;6.30;;;27.20;67.90;;;;;;5025180;28;20589;-61
2021/08/10 07:42:41;;;;;;;8.02;7.07;;;27.30;67.30;;;;;;5021280;28;20484;-61
2021/08/10 07:45:07;;;;;;;7.72;7.03;;;27.30;67.80;;;;;;5014616;28;20034;-61
2021/08/10 07:47:33;;;;;;;6.95;6.30;;;27.30;68.00;;;;;;5020000;28;20166;-61
2021/08/10 07:49:59;;;;;;;7.22;6.53;;;27.40;68.20;;;;;;5024912;28;20115;-61
2021/08/10 07:52:25;;;;;;;7.05;6.32;;;27.40;67.90;;;;;;5024029;28;20033;-61
2021/08/10 07:54:51;;;;;;;8.25;6.60;;;27.40;67.60;;;;;;5020486;28;20112;-61
2021/08/10 07:57:16;;;;;;;6.90;6.20;;;27.40;67.50;;;;;;5016849;28;20033;-61
2021/08/10 07:59:42;;;;;;;7.68;6.93;;;27.50;67.20;;;;;;5016074;28;20521;-61
2021/08/10 08:02:08;;;;;;;6.65;5.95;;;27.50;67.10;;;;;;5020246;28;20048;-61
2021/08/10 08:04:35;;;;;;;7.40;6.50;;;27.50;66.90;;;;;;5020585;28;20041;-61
2021/08/10 08:07:02;;;;;;;6.97;6.30;;;27.50;67.00;;;;;;5022690;28;20103;-61
2021/08/10 08:09:28;;;;;;;8.13;6.65;;;27.50;66.90;;;;;;5026229;28;20109;-61
2021/08/10 08:11:54;;;;;;;7.10;6.40;;;27.50;67.00;;;;;;5025077;28;20041;-61
2021/08/10 08:14:21;;;;;;;7.75;6.40;;;27.50;66.90;;;;;;5017159;28;20057;-61
2021/08/10 08:16:47;;;;;;;8.30;5.90;;;27.50;66.90;;;;;;5019908;28;20048;-61
2021/08/10 08:19:13;;;;;;;6.90;6.22;;;27.50;67.00;;;;;;5022359;28;20087;-62
2021/08/10 08:21:40;;;;;;;6.75;6.05;;;27.50;66.90;;;;;;5018238;28;20461;-62
2021/08/10 08:24:05;;;;;;;7.70;6.20;;;27.50;66.90;;;;;;5020791;28;20036;-61
2021/08/10 08:26:32;;;;;;;7.10;6.40;;;27.50;67.10;;;;;;5015888;28;20037;-60
2021/08/10 08:28:57;;;;;;;6.60;5.95;;;27.50;67.00;;;;;;5024860;28;20030;-61
2021/08/10 08:31:23;;;;;;;6.72;6.05;;;27.50;66.80;;;;;;5025544;28;20044;-61
2021/08/10 08:33:49;;;;;;;7.40;6.65;;;27.50;66.90;;;;;;5020778;28;20057;-61
2021/08/10 08:36:15;;;;;;;6.78;6.07;;;27.50;66.90;;;;;;5024450;28;20034;-61
2021/08/10 08:38:41;;;;;;;7.40;6.70;;;27.50;67.10;;;;;;5017971;28;20412;-60
2021/08/10 08:41:06;;;;;;;7.78;6.75;;;27.50;67.30;;;;;;5025132;28;20044;-62
2021/08/10 08:43:32;;;;;;;6.80;6.13;;;27.50;67.10;;;;;;5018004;28;20034;-61
2021/08/10 08:45:58;;;;;;;6.75;6.15;;;27.50;67.30;;;;;;5021451;28;20067;-62
2021/08/10 08:48:26;;;;;;;6.63;6.03;;;27.40;67.10;;;;;;5020421;28;20433;-60
2021/08/10 08:50:52;;;;;;;7.63;6.20;;;27.40;67.00;;;;;;5024985;28;20783;-60
2021/08/10 08:53:19;;;;;;;6.53;5.93;;;27.40;67.10;;;;;;5021681;28;20033;-61
2021/08/10 08:55:46;;;;;;;7.70;6.50;;;27.40;67.30;;;;;;5026364;28;20389;-60
2021/08/10 08:58:13;;;;;;;6.47;5.75;;;27.40;67.60;;;;;;5019316;28;20034;-60
2021/08/10 09:00:39;;;;;;;6.47;5.78;;;27.40;67.50;;;;;;5017409;28;20029;-61
2021/08/10 09:03:06;;;;;;;6.85;6.25;;;27.40;67.30;;;;;;5014735;28;20045;-61
2021/08/10 09:05:34;;;;;;;7.07;6.30;;;27.40;67.50;;;;;;5022275;28;20060;-61
2021/08/10 09:08:25;;;;;;;6.63;6.03;;;27.40;67.60;;;;;;5018501;28;20465;-61
2021/08/10 09:11:19;;;;;;;6.97;5.82;;;27.40;67.50;;;;;;5018264;28;20076;-62
2021/08/10 09:14:03;;;;;;;6.60;5.25;;;27.40;67.50;;;;;;5021804;28;20412;-61
2021/08/10 09:16:29;;;;;;;6.57;5.72;;;27.40;67.30;;;;;;5023100;28;20384;-61
2021/08/10 09:18:55;;;;;;;6.72;5.97;;;27.30;67.50;;;;;;5019237;28;20028;-61
2021/08/10 09:21:23;;;;;;;6.53;5.88;;;27.30;67.40;;;;;;5020271;28;20033;-61
2021/08/10 09:23:56;;;;;;;7.07;6.30;;;27.30;67.30;;;;;;5014328;28;20133;-60
2021/08/10 09:26:23;;;;;;;7.88;6.45;;;27.30;67.60;;;;;;5017545;28;20048;-60
2021/08/10 09:28:55;;;;;;;7.57;6.60;;;27.30;67.60;;;;;;5011981;28;20033;-61
2021/08/10 09:31:31;;;;;;;7.40;6.70;;;27.30;67.70;;;;;;5018258;28;20049;-61
2021/08/10 09:33:58;;;;;;;6.60;5.90;;;27.30;67.70;;;;;;5018958;28;20067;-61
2021/08/10 09:36:25;;;;;;;6.25;5.65;;;27.30;67.60;;;;;;5018340;28;20040;-61
2021/08/10 09:38:51;;;;;;;6.95;5.65;;;27.40;67.80;;;;;;5015257;28;20380;-61
2021/08/10 09:41:16;;;;;;;7.05;6.35;;;27.30;67.50;;;;;;5021502;28;20038;-62
2021/08/10 09:43:42;;;;;;;6.55;5.78;;;27.30;67.60;;;;;;5019957;28;20026;-61
2021/08/10 09:46:12;;;;;;;6.28;5.68;;;27.40;67.60;;;;;;5021739;28;20049;-62
2021/08/10 09:48:48;;;;;;;5.95;5.35;;;27.30;67.50;;;;;;5020597;28;20052;-61
2021/08/10 09:51:18;;;;;;;6.10;5.50;;;27.40;67.60;;;;;;5018242;28;20148;-61
2021/08/10 09:54:16;;;;;;;6.43;5.72;;;27.40;67.50;;;;;;5018836;28;20033;-62
2021/08/10 09:56:52;;;;;;;7.05;5.57;;;27.40;67.60;;;;;;5018706;28;20110;-61
2021/08/10 09:59:21;;;;;;;9.85;5.60;;;27.40;67.80;;;;;;5022131;28;20060;-61
2021/08/10 10:01:51;;;;;;;5.63;5.07;;;27.40;68.40;;;;;;5017574;28;20037;-62
2021/08/10 10:04:18;;;;;;;6.18;5.57;;;27.40;67.30;;;;;;5016923;28;20040;-60
2021/08/10 10:06:45;;;;;;;8.57;5.53;;;27.40;67.30;;;;;;5016004;28;20947;-61
2021/08/10 10:09:12;;;;;;;12.43;5.88;;;27.40;67.20;;;;;;5018428;28;20025;-61
2021/08/10 10:11:40;;;;;;;6.82;5.57;;;27.40;67.30;;;;;;5020317;28;20034;-61
2021/08/10 10:14:06;;;;;;;6.25;5.57;;;27.50;67.90;;;;;;5015635;28;20025;-61
2021/08/10 10:16:33;;;;;;;6.18;5.55;;;27.50;67.30;;;;;;5017339;28;20034;-62
2021/08/10 10:19:05;;;;;;;7.78;5.50;;;27.50;67.20;;;;;;5013520;28;20030;-61
2021/08/10 10:21:32;;;;;;;6.50;5.75;;;27.50;67.20;;;;;;5022312;28;20037;-61
2021/08/10 10:24:02;;;;;;;7.78;5.65;;;27.50;67.20;;;;;;5022753;28;20120;-61
2021/08/10 10:26:30;;;;;;;5.95;5.35;;;27.50;67.10;;;;;;5019346;28;20057;-62
2021/08/10 10:28:56;;;;;;;5.75;5.15;;;27.50;67.40;;;;;;5020838;28;20043;-61
2021/08/10 10:31:22;;;;;;;5.40;4.90;;;27.50;67.20;;;;;;5016407;28;20045;-61
2021/08/10 10:33:49;;;;;;;5.57;5.07;;;27.50;67.30;;;;;;5020630;28;20112;-61
2021/08/10 10:36:15;;;;;;;6.35;5.70;;;27.60;67.30;;;;;;5015972;28;20033;-61
2021/08/10 10:38:43;;;;;;;5.80;5.15;;;27.50;67.60;;;;;;5020390;28;20037;-61
2021/08/10 10:41:11;;;;;;;6.65;4.97;;;27.60;67.80;;;;;;5018918;28;20029;-61
2021/08/10 10:43:38;;;;;;;6.50;5.28;;;27.60;67.70;;;;;;5021682;28;20677;-61
2021/08/10 10:46:33;;;;;;;11.73;5.82;;;27.60;67.70;;;;;;5016476;28;20175;-61
2021/08/10 10:49:01;;;;;;;9.90;5.88;;;27.60;67.50;;;;;;5022324;28;20033;-61
2021/08/10 10:51:40;;;;;;;5.28;4.78;;;27.60;67.50;;;;;;5023148;28;20025;-61
2021/08/10 10:54:26;;;;;;;10.00;5.32;;;27.60;67.60;;;;;;5022882;28;20029;-61
2021/08/10 10:56:55;;;;;;;5.57;4.95;;;27.60;67.50;;;;;;5018975;28;20056;-61
2021/08/10 10:59:23;;;;;;;6.38;5.78;;;27.60;67.60;;;;;;5024480;28;20719;-61
2021/08/10 11:01:50;;;;;;;6.32;5.68;;;27.60;67.70;;;;;;5022220;28;20033;-61
2021/08/10 11:04:16;;;;;;;6.25;5.10;;;27.70;67.70;;;;;;5024397;28;20064;-61
2021/08/10 11:06:48;;;;;;;5.88;5.28;;;27.70;67.60;;;;;;5022296;28;20026;-61
2021/08/10 11:09:46;;;;;;;6.45;4.90;;;27.70;67.80;;;;;;5016815;28;20472;-61
2021/08/10 11:12:41;;;;;;;6.10;5.30;;;27.70;67.80;;;;;;5010342;28;20046;-60
2021/08/10 11:15:09;;;;;;;5.95;5.35;;;27.70;67.80;;;;;;5025374;28;20044;-60
2021/08/10 11:17:36;;;;;;;5.45;4.95;;;27.70;67.60;;;;;;5014494;28;20095;-61
2021/08/10 11:20:22;;;;;;;5.90;5.05;;;27.70;67.60;;;;;;5021524;28;20037;-59
2021/08/10 11:22:48;;;;;;;5.50;4.97;;;27.70;67.60;;;;;;5019366;28;20118;-62
2021/08/10 11:25:25;;;;;;;6.75;5.25;;;27.70;67.40;;;;;;5021854;28;20040;-61
2021/08/10 11:27:51;;;;;;;5.47;4.88;;;27.70;67.20;;;;;;5016654;28;20048;-61
2021/08/10 11:30:20;;;;;;;5.65;5.05;;;27.70;67.60;;;;;;5021385;28;20064;-62
2021/08/10 11:32:50;;;;;;;7.20;4.70;;;27.70;67.10;;;;;;5018936;28;20441;-61
2021/08/10 11:35:39;;;;;;;5.65;5.00;;;27.70;67.10;;;;;;5023074;28;20032;-61
2021/08/10 11:38:13;;;;;;;9.30;4.95;;;27.70;66.90;;;;;;5018900;28;20386;-61
2021/08/10 11:40:49;;;;;;;7.38;4.88;;;27.70;66.90;;;;;;5016433;28;20448;-61
2021/08/10 11:43:15;;;;;;;6.40;4.75;;;27.80;67.20;;;;;;5022264;28;20036;-61
2021/08/10 11:45:41;;;;;;;6.35;4.95;;;27.70;67.00;;;;;;5021110;28;20029;-60
2021/08/10 11:48:07;;;;;;;5.68;5.07;;;27.80;67.40;;;;;;5023684;28;20071;-62
2021/08/10 11:50:35;;;;;;;6.47;5.78;;;27.80;67.30;;;;;;5026589;28;20028;-60
2021/08/10 11:53:02;;;;;;;5.72;5.15;;;27.80;67.50;;;;;;5023973;28;20116;-61
2021/08/10 11:55:36;;;;;;;6.97;4.93;;;27.80;67.60;;;;;;5027395;28;20025;-60
2021/08/10 11:58:06;;;;;;;7.45;5.25;;;27.80;67.70;;;;;;5025155;28;20580;-61
2021/08/10 12:00:35;;;;;;;5.88;5.28;;;27.80;67.40;;;;;;5021382;28;20116;-62
2021/08/10 12:03:03;;;;;;;7.45;5.07;;;27.80;67.30;;;;;;5018486;28;20035;-62
2021/08/10 12:05:30;;;;;;;6.35;4.78;;;27.80;67.50;;;;;;5020193;28;20155;-61
2021/08/10 12:07:57;;;;;;;7.30;5.10;;;27.80;67.20;;;;;;5015595;28;20029;-62
2021/08/10 12:10:30;;;;;;;5.88;5.28;;;27.80;67.20;;;;;;5014957;28;20030;-62
2021/08/10 12:13:00;;;;;;;5.38;4.68;;;27.80;67.10;;;;;;5020978;28;20539;-62
2021/08/10 12:15:33;;;;;;;;;;;27.80;67.40;;;;;;5021538;28;20376;-62
2021/08/10 12:17:58;;;;;;;5.28;4.50;;;27.80;67.70;;;;;;5018706;28;19919;-62
2021/08/10 12:20:24;;;;;;;6.57;5.00;;;27.80;67.80;;;;;;5025664;28;20111;-62
2021/08/10 12:23:01;;;;;;;5.00;4.50;;;27.80;67.90;;;;;;5021793;28;20029;-62
2021/08/10 12:25:27;;;;;;;5.18;4.50;;;27.80;68.10;;;;;;5017647;28;20064;-60
2021/08/10 12:28:04;;;;;;;6.05;5.40;;;27.80;68.10;;;;;;5016638;28;20100;-61
2021/08/10 12:30:32;;;;;;;7.45;4.93;;;27.80;68.40;;;;;;5024195;28;20077;-62
2021/08/10 12:33:13;;;;;;;6.60;4.90;;;27.80;68.60;;;;;;5020683;28;20036;-63
2021/08/10 12:35:39;;;;;;;;;;;27.80;68.70;;;;;;5018276;28;20049;-62
2021/08/10 12:38:05;;;;;;;5.00;4.35;;;27.80;68.40;;;;;;5017983;28;20345;-62
2021/08/10 12:40:31;;;;;;;5.28;4.53;;;27.80;68.50;;;;;;5022353;28;20025;-62
2021/08/10 12:42:57;;;;;;;5.90;5.00;;;27.80;68.60;;;;;;5020172;28;20036;-62
2021/08/10 12:45:30;;;;;;;8.18;5.10;;;27.80;68.70;;;;;;5015377;28;20380;-62
2021/08/10 12:47:56;;;;;;;5.13;4.47;;;27.80;68.70;;;;;;5020425;28;20025;-61
2021/08/10 12:50:29;;;;;;;5.20;4.68;;;27.80;67.90;;;;;;5019471;28;20048;-62
2021/08/10 12:52:56;;;;;;;4.88;3.95;;;27.80;67.80;;;;;;5021855;28;20040;-62